Time;durP1;ratioP1;P1;durP2;ratioP2;P2;SDS_P1;SDS_P2;PMS_P1;PMS_P2;Temp;Humidity;BMP_temperature;BMP_pressure;BME280_temperature;BME280_humidity;BME280_pressure;Samples;Min_cycle;Max_cycle;Signal;HPM_P1;HPM_P2
2023/01/31 00:00:19;;;;;;;14.57;8.47;;;;;;;;;;5106129;28;20213;-79
2023/01/31 00:02:45;;;;;;;16.83;9.00;;;;;;;;;;5104141;27;20230;-78
2023/01/31 00:05:11;;;;;;;17.87;9.53;;;;;;;;;;5105497;28;20544;-79
2023/01/31 00:07:37;;;;;;;17.60;9.00;;;;;;;;;;5104234;27;20191;-79
2023/01/31 00:10:03;;;;;;;18.03;9.27;;;;;;;;;;5112170;28;20636;-79
2023/01/31 00:12:29;;;;;;;16.00;8.67;;;;;;;;;;5098096;28;20184;-79
2023/01/31 00:14:55;;;;;;;15.00;8.63;;;;;;;;;;5109198;27;20211;-79
2023/01/31 00:17:59;;;;;;;17.83;9.90;;;;;;;;;;5108082;28;20185;-79
2023/01/31 00:20:25;;;;;;;16.33;8.87;;;;;;;;;;5112149;28;20186;-79
2023/01/31 00:22:51;;;;;;;17.17;9.17;;;;;;;;;;5112896;28;20176;-78
2023/01/31 00:25:32;;;;;;;13.60;8.20;;;;;;;;;;5112186;28;20715;-79
2023/01/31 00:27:58;;;;;;;15.70;9.13;;;;;;;;;;5099336;28;20160;-78
2023/01/31 00:30:25;;;;;;;17.33;8.80;;;;;;;;;;5116636;28;20182;-79
2023/01/31 00:32:51;;;;;;;13.77;7.87;;;;;;;;;;5101326;28;20697;-78
2023/01/31 00:35:17;;;;;;;16.37;8.63;;;;;;;;;;5103756;28;20209;-79
2023/01/31 00:37:43;;;;;;;18.27;8.93;;;;;;;;;;5112254;28;20186;-79
2023/01/31 00:40:09;;;;;;;14.30;8.73;;;;;;;;;;5094914;28;20262;-78
2023/01/31 00:42:35;;;;;;;17.23;7.60;;;;;;;;;;5106527;28;20635;-79
2023/01/31 00:45:01;;;;;;;16.57;8.30;;;;;;;;;;5110766;28;20274;-79
2023/01/31 00:47:27;;;;;;;12.17;7.37;;;;;;;;;;5114573;28;20533;-79
2023/01/31 00:49:53;;;;;;;15.50;8.63;;;;;;;;;;5112144;28;20266;-78
2023/01/31 00:52:19;;;;;;;17.00;8.97;;;;;;;;;;5114058;28;20184;-78
2023/01/31 00:54:45;;;;;;;18.93;8.63;;;;;;;;;;5093804;28;20565;-79
2023/01/31 00:57:11;;;;;;;15.50;8.27;;;;;;;;;;5113381;28;20643;-79
2023/01/31 00:59:37;;;;;;;14.37;7.80;;;;;;;;;;5105773;28;20184;-79
2023/01/31 01:02:03;;;;;;;15.60;8.10;;;;;;;;;;5104584;28;20192;-79
2023/01/31 01:04:29;;;;;;;15.80;8.57;;;;;;;;;;5108913;28;20267;-79
2023/01/31 01:06:55;;;;;;;17.80;7.87;;;;;;;;;;5100943;28;20586;-79
2023/01/31 01:09:21;;;;;;;21.57;8.10;;;;;;;;;;5113827;28;20186;-78
2023/01/31 01:11:48;;;;;;;15.67;7.90;;;;;;;;;;5113531;28;20237;-79
2023/01/31 01:14:14;;;;;;;18.73;7.43;;;;;;;;;;5108132;28;20185;-79
2023/01/31 01:16:41;;;;;;;16.93;8.07;;;;;;;;;;5098114;27;20179;-79
2023/01/31 01:19:08;;;;;;;13.70;7.67;;;;;;;;;;5099340;27;20221;-78
2023/01/31 01:21:38;;;;;;;12.10;7.93;;;;;;;;;;5109542;28;20704;-79
2023/01/31 01:24:04;;;;;;;17.20;8.47;;;;;;;;;;5111079;27;20183;-79
2023/01/31 01:26:31;;;;;;;17.63;8.73;;;;;;;;;;5110343;27;20184;-79
2023/01/31 01:28:58;;;;;;;16.40;7.93;;;;;;;;;;5111088;27;20183;-79
2023/01/31 01:31:30;;;;;;;19.33;8.53;;;;;;;;;;5114523;27;20196;-79
2023/01/31 01:33:57;;;;;;;15.97;8.17;;;;;;;;;;5097102;27;20223;-79
2023/01/31 01:36:23;;;;;;;16.20;8.50;;;;;;;;;;5109873;27;20816;-79
2023/01/31 01:38:49;;;;;;;20.40;9.23;;;;;;;;;;5105454;27;20641;-78
2023/01/31 01:41:16;;;;;;;15.03;8.50;;;;;;;;;;5105126;27;20180;-79
2023/01/31 01:43:52;;;;;;;20.17;8.83;;;;;;;;;;5113688;27;20187;-80
2023/01/31 01:46:18;;;;;;;14.60;8.73;;;;;;;;;;5096828;27;20183;-79
2023/01/31 01:48:46;;;;;;;15.33;8.27;;;;;;;;;;5109247;28;20239;-79
2023/01/31 01:51:13;;;;;;;16.17;8.67;;;;;;;;;;5103940;27;20537;-80
2023/01/31 01:53:40;;;;;;;16.47;7.67;;;;;;;;;;5103476;27;20203;-79
2023/01/31 01:56:36;;;;;;;17.77;7.80;;;;;;;;;;5102813;27;20671;-79
2023/01/31 01:59:05;;;;;;;16.57;8.17;;;;;;;;;;5093144;27;20203;-79
2023/01/31 02:01:33;;;;;;;19.87;9.13;;;;;;;;;;5114813;27;20778;-79
2023/01/31 02:04:00;;;;;;;19.13;8.20;;;;;;;;;;5112764;28;20172;-78
2023/01/31 02:06:26;;;;;;;13.40;7.33;;;;;;;;;;5110938;27;20652;-79
2023/01/31 02:08:52;;;;;;;16.97;7.67;;;;;;;;;;5112440;27;20212;-79
2023/01/31 02:11:23;;;;;;;17.43;7.50;;;;;;;;;;5109942;27;20271;-79
2023/01/31 02:13:52;;;;;;;14.60;7.40;;;;;;;;;;5097605;27;20720;-79
2023/01/31 02:16:18;;;;;;;19.17;7.70;;;;;;;;;;5113675;27;20199;-79
2023/01/31 02:18:45;;;;;;;16.60;6.40;;;;;;;;;;5113382;28;20240;-79
2023/01/31 02:21:17;;;;;;;19.33;7.27;;;;;;;;;;5103583;27;20176;-79
2023/01/31 02:23:52;;;;;;;15.00;6.87;;;;;;;;;;5102905;27;20536;-79
2023/01/31 02:26:33;;;;;;;18.00;7.20;;;;;;;;;;5111285;27;20262;-78
2023/01/31 02:28:59;;;;;;;15.63;7.03;;;;;;;;;;5104526;27;20188;-79
2023/01/31 02:31:25;;;;;;;15.33;6.93;;;;;;;;;;5113141;27;20533;-78
2023/01/31 02:33:51;;;;;;;14.60;6.70;;;;;;;;;;5095830;28;20230;-78
2023/01/31 02:36:23;;;;;;;13.87;6.93;;;;;;;;;;5114914;27;20579;-79
2023/01/31 02:42:02;;;;;;;17.90;7.70;;;;;;;;;;5112421;27;20182;-79
2023/01/31 02:47:44;;;;;;;13.57;6.20;;;;;;;;;;5066962;28;20326;-79
2023/01/31 02:50:29;;;;;;;16.30;6.83;;;;;;;;;;5067607;28;20271;-79
2023/01/31 02:53:03;;;;;;;19.83;7.47;;;;;;;;;;5051171;28;20193;-79
2023/01/31 02:58:20;;;;;;;18.67;7.03;;;;;;;;;;5067585;28;20558;-79
2023/01/31 03:00:47;;;;;;;14.80;6.40;;;;;;;;;;5070067;28;20189;-79
2023/01/31 03:03:17;;;;;;;20.17;7.77;;;;;;;;;;5051850;28;20692;-79
2023/01/31 03:05:43;;;;;;;22.67;6.87;;;;;;;;;;5049779;28;20197;-79
2023/01/31 03:08:15;;;;;;;20.43;6.77;;;;;;;;;;5040377;28;20195;-79
2023/01/31 03:10:50;;;;;;;17.40;5.90;;;;;;;;;;5067345;28;20205;-78
2023/01/31 03:13:23;;;;;;;18.30;5.90;;;;;;;;;;5051154;28;20200;-79
2023/01/31 03:18:58;;;;;;;16.83;6.53;;;;;;;;;;5100717;28;20186;-79
2023/01/31 03:21:30;;;;;;;17.93;6.30;;;;;;;;;;5110810;27;20184;-79
2023/01/31 03:23:56;;;;;;;24.97;7.13;;;;;;;;;;5101421;27;20271;-79
2023/01/31 03:26:23;;;;;;;17.47;5.47;;;;;;;;;;5102717;27;20192;-79
2023/01/31 03:28:53;;;;;;;15.97;6.47;;;;;;;;;;5100658;28;20692;-78
2023/01/31 03:31:19;;;;;;;16.47;5.57;;;;;;;;;;5110944;27;20193;-79
2023/01/31 03:33:47;;;;;;;16.43;5.60;;;;;;;;;;5112362;28;20216;-80
2023/01/31 03:36:24;;;;;;;21.40;5.87;;;;;;;;;;5102798;27;20247;-79
2023/01/31 03:38:53;;;;;;;16.80;5.77;;;;;;;;;;5099335;27;20218;-79
2023/01/31 03:41:33;;;;;;;14.93;5.40;;;;;;;;;;5105305;27;20226;-79
2023/01/31 03:44:06;;;;;;;18.10;6.33;;;;;;;;;;5114095;27;20599;-78
2023/01/31 03:46:39;;;;;;;25.70;6.40;;;;;;;;;;5096815;27;20193;-79
2023/01/31 03:49:07;;;;;;;17.90;5.53;;;;;;;;;;5095189;28;20534;-78
2023/01/31 03:51:36;;;;;;;23.87;6.50;;;;;;;;;;5112667;27;20252;-78
2023/01/31 03:54:05;;;;;;;18.77;6.00;;;;;;;;;;5112391;27;20598;-79
2023/01/31 03:56:34;;;;;;;15.23;4.93;;;;;;;;;;5109131;27;20622;-78
2023/01/31 03:59:02;;;;;;;21.10;6.13;;;;;;;;;;5099666;27;20195;-79
2023/01/31 04:01:30;;;;;;;18.60;5.63;;;;;;;;;;5096281;27;20207;-79
2023/01/31 04:04:15;;;;;;;21.47;5.90;;;;;;;;;;5106997;28;20179;-79
2023/01/31 04:06:41;;;;;;;19.63;5.23;;;;;;;;;;5102004;28;20260;-79
2023/01/31 04:09:07;;;;;;;18.37;6.20;;;;;;;;;;5100099;27;20176;-79
2023/01/31 04:11:36;;;;;;;18.17;5.83;;;;;;;;;;5100950;28;20176;-79
2023/01/31 04:14:02;;;;;;;24.13;6.40;;;;;;;;;;5101065;28;20175;-79
2023/01/31 04:16:28;;;;;;;19.30;5.70;;;;;;;;;;5103262;28;20217;-79
2023/01/31 04:18:55;;;;;;;20.17;6.23;;;;;;;;;;5106394;28;20670;-79
2023/01/31 04:21:21;;;;;;;17.87;5.47;;;;;;;;;;5101687;28;20192;-78
2023/01/31 04:23:47;;;;;;;22.77;5.97;;;;;;;;;;5102032;28;20241;-79
2023/01/31 04:26:14;;;;;;;17.43;6.37;;;;;;;;;;5108814;28;20244;-78
2023/01/31 04:28:40;;;;;;;19.47;5.67;;;;;;;;;;5099487;28;20184;-79
2023/01/31 04:31:06;;;;;;;21.57;5.40;;;;;;;;;;5094335;28;20177;-78
2023/01/31 04:33:32;;;;;;;19.23;5.47;;;;;;;;;;5114203;28;20250;-79
2023/01/31 04:35:58;;;;;;;28.40;6.73;;;;;;;;;;5103010;28;20200;-79
2023/01/31 04:38:24;;;;;;;23.03;6.63;;;;;;;;;;5103351;28;20302;-79
2023/01/31 04:40:50;;;;;;;21.63;5.03;;;;;;;;;;5111878;28;20214;-78
2023/01/31 04:43:16;;;;;;;19.47;5.60;;;;;;;;;;5094652;28;20188;-78
2023/01/31 04:45:42;;;;;;;17.17;5.03;;;;;;;;;;5103113;28;20175;-79
2023/01/31 04:48:08;;;;;;;18.67;5.57;;;;;;;;;;5103261;28;20503;-79
2023/01/31 04:50:34;;;;;;;16.90;4.63;;;;;;;;;;5098573;28;20195;-79
2023/01/31 04:53:00;;;;;;;19.80;5.53;;;;;;;;;;5097793;27;20184;-79
2023/01/31 04:55:26;;;;;;;17.37;5.00;;;;;;;;;;5113900;27;20207;-79
2023/01/31 04:57:52;;;;;;;20.40;5.33;;;;;;;;;;5115580;27;20180;-79
2023/01/31 05:00:18;;;;;;;24.87;6.63;;;;;;;;;;5104823;27;20252;-80
2023/01/31 05:02:45;;;;;;;27.73;5.67;;;;;;;;;;5115987;27;20176;-78
2023/01/31 05:05:13;;;;;;;25.23;5.43;;;;;;;;;;5115737;27;20192;-79
2023/01/31 05:07:39;;;;;;;20.03;5.17;;;;;;;;;;5105531;27;20191;-79
2023/01/31 05:10:06;;;;;;;18.80;5.63;;;;;;;;;;5111115;28;20203;-79
2023/01/31 05:12:32;;;;;;;15.40;4.97;;;;;;;;;;5105425;27;20625;-79
2023/01/31 05:14:58;;;;;;;21.87;6.03;;;;;;;;;;5104231;27;20222;-79
2023/01/31 05:17:25;;;;;;;17.50;5.13;;;;;;;;;;5110373;27;20186;-79
2023/01/31 05:19:51;;;;;;;14.53;4.73;;;;;;;;;;5113406;27;20183;-79
2023/01/31 05:22:21;;;;;;;11.50;4.77;;;;;;;;;;5095526;27;20592;-79
2023/01/31 05:24:47;;;;;;;18.57;5.50;;;;;;;;;;5117417;27;20180;-79
2023/01/31 05:27:13;;;;;;;17.73;5.23;;;;;;;;;;5107000;27;20180;-79
2023/01/31 05:29:39;;;;;;;19.33;5.63;;;;;;;;;;5114112;27;20729;-79
2023/01/31 05:32:05;;;;;;;16.60;5.17;;;;;;;;;;5115030;27;20231;-78
2023/01/31 05:34:32;;;;;;;23.77;6.43;;;;;;;;;;5098932;27;20218;-79
2023/01/31 05:36:58;;;;;;;18.70;5.13;;;;;;;;;;5104856;27;20215;-78
2023/01/31 05:39:24;;;;;;;18.23;5.00;;;;;;;;;;5105196;27;20180;-79
2023/01/31 05:41:51;;;;;;;17.47;5.27;;;;;;;;;;5107253;27;20288;-79
2023/01/31 05:44:17;;;;;;;22.80;5.53;;;;;;;;;;5110874;27;20195;-80
2023/01/31 05:46:43;;;;;;;19.77;5.87;;;;;;;;;;5113637;27;20201;-81
2023/01/31 05:49:11;;;;;;;19.53;5.60;;;;;;;;;;5096441;27;20179;-79
2023/01/31 05:51:37;;;;;;;27.83;5.57;;;;;;;;;;5114495;27;20259;-81
2023/01/31 05:54:03;;;;;;;19.07;5.17;;;;;;;;;;5114425;27;20282;-79
2023/01/31 05:56:29;;;;;;;19.43;5.90;;;;;;;;;;5110350;27;20254;-80
2023/01/31 05:58:55;;;;;;;21.23;5.80;;;;;;;;;;5113538;27;20185;-78
2023/01/31 06:01:23;;;;;;;15.37;5.30;;;;;;;;;;5096266;27;20168;-80
2023/01/31 06:03:49;;;;;;;19.97;5.17;;;;;;;;;;5103755;28;20179;-81
2023/01/31 06:06:16;;;;;;;19.70;5.40;;;;;;;;;;5105019;27;20244;-79
2023/01/31 06:08:42;;;;;;;22.10;5.07;;;;;;;;;;5111163;27;20208;-79
2023/01/31 06:11:10;;;;;;;23.87;6.13;;;;;;;;;;5112885;27;20202;-78
2023/01/31 06:13:36;;;;;;;21.13;4.77;;;;;;;;;;5111155;27;20186;-79
2023/01/31 06:16:02;;;;;;;21.43;6.13;;;;;;;;;;5102421;28;20211;-78
2023/01/31 06:18:28;;;;;;;17.33;4.77;;;;;;;;;;5109610;27;20192;-79
2023/01/31 06:20:54;;;;;;;20.23;4.93;;;;;;;;;;5108626;27;20217;-78
2023/01/31 06:23:20;;;;;;;18.27;5.23;;;;;;;;;;5113293;27;20176;-79
2023/01/31 06:25:50;;;;;;;16.53;4.93;;;;;;;;;;5112463;27;20569;-80
2023/01/31 06:28:16;;;;;;;18.60;5.70;;;;;;;;;;5104685;27;20183;-79
2023/01/31 06:30:42;;;;;;;17.77;5.07;;;;;;;;;;5100704;27;20178;-79
2023/01/31 06:33:08;;;;;;;13.33;5.20;;;;;;;;;;5101848;27;20278;-79
2023/01/31 06:35:34;;;;;;;22.90;5.20;;;;;;;;;;5105680;27;20199;-79
2023/01/31 06:38:00;;;;;;;19.67;5.17;;;;;;;;;;5104157;27;20188;-80
2023/01/31 06:40:26;;;;;;;16.77;5.40;;;;;;;;;;5096479;27;20190;-79
2023/01/31 06:42:52;;;;;;;18.23;5.10;;;;;;;;;;5110308;28;20701;-80
2023/01/31 06:45:18;;;;;;;20.17;5.50;;;;;;;;;;5109369;27;20183;-79
2023/01/31 06:47:44;;;;;;;18.53;5.83;;;;;;;;;;5108979;27;20188;-80
2023/01/31 06:50:11;;;;;;;15.90;4.67;;;;;;;;;;5101687;27;20693;-79
2023/01/31 06:52:37;;;;;;;21.50;5.93;;;;;;;;;;5096527;27;20182;-80
2023/01/31 06:55:04;;;;;;;19.40;5.93;;;;;;;;;;5095614;27;20231;-80
2023/01/31 06:57:29;;;;;;;18.57;5.77;;;;;;;;;;5102309;27;20279;-80
2023/01/31 06:59:55;;;;;;;13.27;5.37;;;;;;;;;;5100721;28;20276;-80
2023/01/31 07:02:21;;;;;;;16.13;5.03;;;;;;;;;;5100683;27;20205;-79
2023/01/31 07:04:47;;;;;;;19.93;5.07;;;;;;;;;;5099075;27;20191;-80
2023/01/31 07:07:13;;;;;;;21.60;5.77;;;;;;;;;;5103522;28;20176;-79
2023/01/31 07:09:39;;;;;;;19.13;5.23;;;;;;;;;;5115454;27;20221;-80
2023/01/31 07:12:05;;;;;;;18.20;5.00;;;;;;;;;;5115375;27;20211;-79
2023/01/31 07:14:31;;;;;;;19.27;5.63;;;;;;;;;;5110943;27;20188;-79
2023/01/31 07:16:57;;;;;;;20.20;5.27;;;;;;;;;;5110420;27;20687;-80
2023/01/31 07:19:23;;;;;;;14.67;5.17;;;;;;;;;;5094674;27;20176;-79
2023/01/31 07:21:49;;;;;;;14.40;4.70;;;;;;;;;;5107594;27;20179;-80
2023/01/31 07:24:16;;;;;;;17.97;5.43;;;;;;;;;;5113347;27;20652;-80
2023/01/31 07:26:42;;;;;;;15.30;5.47;;;;;;;;;;5115273;27;20188;-80
2023/01/31 07:29:08;;;;;;;18.87;5.33;;;;;;;;;;5104151;27;20183;-79
2023/01/31 07:31:34;;;;;;;18.40;5.57;;;;;;;;;;5093862;27;20172;-79
2023/01/31 07:34:00;;;;;;;18.53;5.67;;;;;;;;;;5098541;28;20220;-80
2023/01/31 07:36:26;;;;;;;16.77;5.43;;;;;;;;;;5111919;27;20290;-80
2023/01/31 07:38:54;;;;;;;16.37;5.63;;;;;;;;;;5108433;27;20184;-80
2023/01/31 07:41:20;;;;;;;16.77;4.83;;;;;;;;;;5100875;27;20180;-79
2023/01/31 07:43:46;;;;;;;15.00;4.93;;;;;;;;;;5094987;27;20179;-79
2023/01/31 07:46:12;;;;;;;19.93;5.70;;;;;;;;;;5105870;28;20176;-79
2023/01/31 07:48:38;;;;;;;14.80;5.07;;;;;;;;;;5112486;27;20532;-78
2023/01/31 07:51:04;;;;;;;20.13;6.13;;;;;;;;;;5113879;27;20270;-79
2023/01/31 07:53:32;;;;;;;18.30;6.83;;;;;;;;;;5111915;27;20624;-80
2023/01/31 07:56:09;;;;;;;13.27;5.53;;;;;;;;;;5098512;27;20602;-80
2023/01/31 07:58:35;;;;;;;25.53;7.17;;;;;;;;;;5111240;27;20226;-79
2023/01/31 08:03:46;;;;;;;15.20;5.17;;;;;;;;;;5115009;27;20683;-80
2023/01/31 08:06:13;;;;;;;15.83;4.97;;;;;;;;;;5105869;27;20640;-80
2023/01/31 08:08:39;;;;;;;16.53;4.97;;;;;;;;;;5108914;27;20225;-79
2023/01/31 08:11:06;;;;;;;13.87;5.40;;;;;;;;;;5098943;27;20175;-79
2023/01/31 08:13:35;;;;;;;20.17;5.40;;;;;;;;;;5103159;28;20177;-79
2023/01/31 08:16:05;;;;;;;12.57;4.27;;;;;;;;;;5107526;28;20199;-80
2023/01/31 08:18:32;;;;;;;12.73;4.37;;;;;;;;;;5111645;28;20290;-79
2023/01/31 08:20:58;;;;;;;15.00;4.97;;;;;;;;;;5106518;28;20180;-79
2023/01/31 08:23:24;;;;;;;19.10;6.07;;;;;;;;;;5099397;28;20522;-79
2023/01/31 08:25:50;;;;;;;20.60;6.50;;;;;;;;;;5113080;28;20191;-79
2023/01/31 08:28:16;;;;;;;21.87;6.40;;;;;;;;;;5109187;28;20203;-79
2023/01/31 08:30:43;;;;;;;18.13;5.23;;;;;;;;;;5105542;27;20214;-79
2023/01/31 08:33:10;;;;;;;13.33;5.00;;;;;;;;;;5101910;27;20247;-79
2023/01/31 08:35:37;;;;;;;14.70;5.57;;;;;;;;;;5106125;27;20264;-79
2023/01/31 08:38:03;;;;;;;16.53;5.27;;;;;;;;;;5115429;27;20187;-78
2023/01/31 08:40:29;;;;;;;16.40;5.87;;;;;;;;;;5096883;27;20594;-80
2023/01/31 08:42:56;;;;;;;20.03;5.90;;;;;;;;;;5112956;28;20613;-79
2023/01/31 08:45:23;;;;;;;18.83;7.07;;;;;;;;;;5108325;27;20188;-78
2023/01/31 08:47:52;;;;;;;18.10;5.47;;;;;;;;;;5109364;27;20176;-79
2023/01/31 08:50:18;;;;;;;21.37;5.87;;;;;;;;;;5117863;27;20172;-79
2023/01/31 08:52:44;;;;;;;19.17;6.13;;;;;;;;;;5098466;27;20987;-78
2023/01/31 08:55:12;;;;;;;20.87;6.13;;;;;;;;;;5114377;27;20211;-78
2023/01/31 08:57:39;;;;;;;21.50;6.30;;;;;;;;;;5115698;27;20183;-79
2023/01/31 09:00:05;;;;;;;20.60;6.53;;;;;;;;;;5111080;27;20271;-79
2023/01/31 09:02:31;;;;;;;21.07;8.53;;;;;;;;;;5103536;27;20909;-80
2023/01/31 09:04:57;;;;;;;23.30;7.37;;;;;;;;;;5115023;27;20483;-79
2023/01/31 09:07:23;;;;;;;22.10;7.50;;;;;;;;;;5110795;28;20198;-78
2023/01/31 09:09:49;;;;;;;16.47;7.20;;;;;;;;;;5096677;27;20172;-79
2023/01/31 09:12:15;;;;;;;23.83;8.97;;;;;;;;;;5102990;27;20180;-79
2023/01/31 09:14:41;;;;;;;27.60;10.23;;;;;;;;;;5107820;27;20210;-79
2023/01/31 09:17:09;;;;;;;14.10;6.63;;;;;;;;;;5112233;27;20187;-79
2023/01/31 09:19:35;;;;;;;20.63;6.30;;;;;;;;;;5097413;27;20169;-79
2023/01/31 09:22:01;;;;;;;14.90;5.30;;;;;;;;;;5106146;27;20214;-79
2023/01/31 09:24:27;;;;;;;14.33;6.13;;;;;;;;;;5110909;27;20208;-79
2023/01/31 09:26:55;;;;;;;17.57;7.67;;;;;;;;;;5112295;27;20189;-79
2023/01/31 09:29:21;;;;;;;14.33;6.37;;;;;;;;;;5114522;27;20176;-79
2023/01/31 09:31:50;;;;;;;16.50;5.87;;;;;;;;;;5097071;27;20224;-79
2023/01/31 09:34:16;;;;;;;17.57;6.20;;;;;;;;;;5109119;28;20179;-79
2023/01/31 09:36:42;;;;;;;17.23;6.10;;;;;;;;;;5115232;27;20702;-79
2023/01/31 09:39:10;;;;;;;15.60;5.80;;;;;;;;;;5103948;27;20198;-78
2023/01/31 09:41:43;;;;;;;25.53;6.70;;;;;;;;;;5106463;27;20208;-79
2023/01/31 09:44:11;;;;;;;13.40;5.77;;;;;;;;;;5114193;27;20191;-79
2023/01/31 09:46:44;;;;;;;20.80;5.53;;;;;;;;;;5095539;27;20180;-79
2023/01/31 09:49:20;;;;;;;22.77;6.23;;;;;;;;;;5106548;27;20211;-78
2023/01/31 09:51:49;;;;;;;19.83;7.17;;;;;;;;;;5117430;27;20183;-79
2023/01/31 09:54:19;;;;;;;23.00;7.57;;;;;;;;;;5106663;27;20189;-78
2023/01/31 09:56:48;;;;;;;18.07;6.93;;;;;;;;;;5103377;27;20204;-79
2023/01/31 09:59:14;;;;;;;17.17;6.47;;;;;;;;;;5115247;27;20211;-79
2023/01/31 10:02:03;;;;;;;23.60;9.13;;;;;;;;;;5096601;27;20208;-79
2023/01/31 10:04:47;;;;;;;22.00;7.40;;;;;;;;;;5109557;28;20596;-79
2023/01/31 10:07:29;;;;;;;16.47;7.30;;;;;;;;;;5110394;28;20175;-79
2023/01/31 10:10:00;;;;;;;17.97;7.00;;;;;;;;;;5115075;27;20171;-79
2023/01/31 10:12:36;;;;;;;16.70;5.50;;;;;;;;;;5106896;27;20263;-79
2023/01/31 10:15:04;;;;;;;22.43;6.37;;;;;;;;;;5103657;27;20302;-79
2023/01/31 10:17:33;;;;;;;19.03;6.10;;;;;;;;;;5103499;27;20188;-79
2023/01/31 10:20:08;;;;;;;19.27;6.63;;;;;;;;;;5111699;27;20212;-79
2023/01/31 10:22:38;;;;;;;18.17;6.67;;;;;;;;;;5108778;28;20185;-79
2023/01/31 10:25:22;;;;;;;14.83;6.40;;;;;;;;;;5112326;28;20176;-79
2023/01/31 10:27:50;;;;;;;22.97;7.20;;;;;;;;;;5103276;27;20202;-78
2023/01/31 10:30:30;;;;;;;15.67;5.37;;;;;;;;;;5109207;27;20192;-79
2023/01/31 10:33:03;;;;;;;13.30;5.37;;;;;;;;;;5114360;27;20683;-79
2023/01/31 10:35:33;;;;;;;17.73;6.37;;;;;;;;;;5111578;27;20204;-79
2023/01/31 10:38:11;;;;;;;21.13;6.47;;;;;;;;;;5098754;27;20184;-79
2023/01/31 10:40:39;;;;;;;14.73;5.83;;;;;;;;;;5096986;28;20230;-78
2023/01/31 10:43:15;;;;;;;14.00;5.77;;;;;;;;;;5108792;27;20283;-79
2023/01/31 10:45:41;;;;;;;21.67;7.47;;;;;;;;;;5118845;27;20187;-79
2023/01/31 10:48:10;;;;;;;15.47;5.47;;;;;;;;;;5110886;27;20266;-78
2023/01/31 10:50:58;;;;;;;13.40;4.50;;;;;;;;;;5113693;27;20266;-79
2023/01/31 10:53:33;;;;;;;16.30;5.43;;;;;;;;;;5106234;27;20636;-79
2023/01/31 10:56:02;;;;;;;17.93;6.37;;;;;;;;;;5114398;27;20333;-80
2023/01/31 10:58:28;;;;;;;18.47;5.80;;;;;;;;;;5109844;28;20195;-78
2023/01/31 11:00:54;;;;;;;16.70;5.10;;;;;;;;;;5109395;27;20662;-79
2023/01/31 11:03:21;;;;;;;17.13;6.13;;;;;;;;;;5113210;27;20194;-79
2023/01/31 11:05:51;;;;;;;17.37;5.00;;;;;;;;;;5113556;27;20214;-78
2023/01/31 11:08:21;;;;;;;19.17;9.03;;;;;;;;;;5095715;27;20180;-79
2023/01/31 11:10:52;;;;;;;18.37;5.50;;;;;;;;;;5094645;28;20180;-79
2023/01/31 11:13:19;;;;;;;16.03;5.60;;;;;;;;;;5113262;27;20180;-79
2023/01/31 11:15:47;;;;;;;18.40;6.83;;;;;;;;;;5102918;27;20622;-79
2023/01/31 11:18:24;;;;;;;14.90;5.53;;;;;;;;;;5108372;27;20195;-79
2023/01/31 11:20:50;;;;;;;14.50;5.97;;;;;;;;;;5107104;27;20234;-80
2023/01/31 11:23:21;;;;;;;16.17;5.60;;;;;;;;;;5112169;27;20183;-78
2023/01/31 11:25:48;;;;;;;17.40;6.20;;;;;;;;;;5097364;27;20237;-79
2023/01/31 11:28:28;;;;;;;14.63;5.43;;;;;;;;;;5106242;28;20183;-79
2023/01/31 11:30:55;;;;;;;13.83;5.13;;;;;;;;;;5100570;27;20184;-79
2023/01/31 11:33:37;;;;;;;20.37;7.43;;;;;;;;;;5119389;27;20234;-79
2023/01/31 11:36:14;;;;;;;16.17;6.27;;;;;;;;;;5109612;27;20295;-79
2023/01/31 11:38:41;;;;;;;19.07;8.07;;;;;;;;;;5092064;28;20200;-79
2023/01/31 11:41:27;;;;;;;13.83;6.33;;;;;;;;;;5107234;27;20189;-78
2023/01/31 11:44:14;;;;;;;16.30;5.57;;;;;;;;;;5095411;27;20278;-78
2023/01/31 11:46:51;;;;;;;15.33;4.97;;;;;;;;;;5109452;28;20518;-78
2023/01/31 11:49:22;;;;;;;16.57;6.50;;;;;;;;;;5114733;27;20525;-80
2023/01/31 11:51:49;;;;;;;15.13;5.30;;;;;;;;;;5100122;27;20664;-79
2023/01/31 11:54:18;;;;;;;15.47;5.23;;;;;;;;;;5117848;27;20275;-79
2023/01/31 11:56:45;;;;;;;15.10;4.77;;;;;;;;;;5114048;27;20672;-79
2023/01/31 11:59:13;;;;;;;16.60;5.73;;;;;;;;;;5111987;27;20239;-79
2023/01/31 12:01:47;;;;;;;13.77;5.50;;;;;;;;;;5090852;28;20235;-79
2023/01/31 12:04:16;;;;;;;17.93;6.20;;;;;;;;;;5110761;28;20172;-79
2023/01/31 12:06:42;;;;;;;13.30;5.13;;;;;;;;;;5109172;27;20675;-79
2023/01/31 12:09:22;;;;;;;11.20;5.10;;;;;;;;;;5113197;27;20655;-79
2023/01/31 12:11:51;;;;;;;16.00;5.60;;;;;;;;;;5105839;28;20184;-79
2023/01/31 12:14:18;;;;;;;14.80;5.73;;;;;;;;;;5112696;28;20186;-79
2023/01/31 12:16:45;;;;;;;12.00;4.90;;;;;;;;;;5110653;28;20231;-79
2023/01/31 12:19:11;;;;;;;11.53;5.43;;;;;;;;;;5107788;28;20240;-79
2023/01/31 12:21:49;;;;;;;16.33;7.47;;;;;;;;;;5103630;28;20640;-79
2023/01/31 12:24:36;;;;;;;12.57;6.50;;;;;;;;;;5101327;28;20545;-79
2023/01/31 12:27:27;;;;;;;15.60;7.20;;;;;;;;;;5100704;28;20183;-79
2023/01/31 12:29:53;;;;;;;9.57;4.60;;;;;;;;;;5096199;28;20564;-79
2023/01/31 12:32:19;;;;;;;11.60;4.23;;;;;;;;;;5097517;28;20225;-79
2023/01/31 12:35:02;;;;;;;14.70;4.97;;;;;;;;;;5095064;28;20638;-79
2023/01/31 12:37:45;;;;;;;16.33;5.77;;;;;;;;;;5094722;28;20188;-78
2023/01/31 12:40:21;;;;;;;13.63;4.23;;;;;;;;;;5105286;28;20187;-79
2023/01/31 12:42:47;;;;;;;9.60;4.00;;;;;;;;;;5111563;28;20175;-79
2023/01/31 12:45:21;;;;;;;9.50;4.37;;;;;;;;;;5108564;28;20196;-79
2023/01/31 12:48:05;;;;;;;9.47;4.20;;;;;;;;;;5113580;28;20259;-79
2023/01/31 12:50:40;;;;;;;12.03;3.90;;;;;;;;;;5110154;28;20195;-79
2023/01/31 12:53:14;;;;;;;12.97;4.27;;;;;;;;;;5095918;28;20179;-79
2023/01/31 12:55:59;;;;;;;12.87;4.50;;;;;;;;;;5107788;28;20195;-79
2023/01/31 12:58:25;;;;;;;13.13;3.87;;;;;;;;;;5093203;28;20270;-79
2023/01/31 13:01:03;;;;;;;17.60;4.53;;;;;;;;;;5100845;28;20206;-79
2023/01/31 13:03:35;;;;;;;12.30;4.20;;;;;;;;;;5107773;28;20183;-78
2023/01/31 13:06:05;;;;;;;11.20;3.93;;;;;;;;;;5109781;28;20187;-79
2023/01/31 13:08:32;;;;;;;10.00;4.33;;;;;;;;;;5099125;28;20571;-79
2023/01/31 13:11:11;;;;;;;14.20;4.20;;;;;;;;;;5111281;28;20184;-79
2023/01/31 13:13:40;;;;;;;9.60;3.60;;;;;;;;;;5109932;28;20175;-79
2023/01/31 13:16:32;;;;;;;10.73;4.20;;;;;;;;;;5099056;27;20248;-78
2023/01/31 13:19:04;;;;;;;10.23;3.80;;;;;;;;;;5041699;28;20210;-80
2023/01/31 13:21:34;;;;;;;13.00;4.57;;;;;;;;;;5055964;28;20185;-79
2023/01/31 13:24:20;;;;;;;10.17;5.13;;;;;;;;;;5061793;28;20198;-79
2023/01/31 13:26:49;;;;;;;14.10;4.43;;;;;;;;;;5037546;28;20185;-79
2023/01/31 13:29:23;;;;;;;11.93;4.63;;;;;;;;;;5037819;28;20667;-78
2023/01/31 13:31:56;;;;;;;13.53;5.47;;;;;;;;;;5032536;28;20537;-79
2023/01/31 13:34:26;;;;;;;9.67;3.80;;;;;;;;;;5035515;28;20537;-79
2023/01/31 13:36:55;;;;;;;13.87;4.70;;;;;;;;;;5034360;28;20213;-78
2023/01/31 13:39:28;;;;;;;13.23;4.67;;;;;;;;;;5037167;28;20304;-79
2023/01/31 13:41:54;;;;;;;12.23;4.33;;;;;;;;;;5035209;28;20197;-79
2023/01/31 13:44:20;;;;;;;10.40;4.17;;;;;;;;;;5033112;28;20297;-78
2023/01/31 13:46:52;;;;;;;12.53;5.13;;;;;;;;;;5031909;28;20264;-78
2023/01/31 13:49:23;;;;;;;8.63;4.87;;;;;;;;;;5041964;28;20194;-79
2023/01/31 13:51:52;;;;;;;10.87;4.90;;;;;;;;;;5034899;28;20190;-78
2023/01/31 13:54:22;;;;;;;14.03;4.97;;;;;;;;;;5033284;28;20182;-79
2023/01/31 13:56:50;;;;;;;12.47;4.77;;;;;;;;;;5097874;27;20223;-79
2023/01/31 13:59:20;;;;;;;13.23;4.87;;;;;;;;;;5114440;27;20214;-79
2023/01/31 14:01:48;;;;;;;13.43;5.37;;;;;;;;;;5095845;28;20221;-78
2023/01/31 14:04:14;;;;;;;15.57;7.43;;;;;;;;;;5112018;28;20176;-79
2023/01/31 14:06:49;;;;;;;12.20;5.00;;;;;;;;;;5112277;28;20187;-78
2023/01/31 14:09:24;;;;;;;13.37;5.63;;;;;;;;;;5113492;27;20175;-79
2023/01/31 14:11:50;;;;;;;12.87;5.40;;;;;;;;;;5114494;27;20206;-78
2023/01/31 14:14:29;;;;;;;19.07;6.20;;;;;;;;;;5107942;27;20215;-78
2023/01/31 14:16:55;;;;;;;16.00;5.47;;;;;;;;;;5098299;27;20561;-78
2023/01/31 14:19:21;;;;;;;14.17;6.17;;;;;;;;;;5110565;28;20246;-78
2023/01/31 14:21:56;;;;;;;13.73;6.40;;;;;;;;;;5104848;27;20214;-77
2023/01/31 14:24:41;;;;;;;15.07;5.87;;;;;;;;;;5113549;27;20184;-78
2023/01/31 14:27:13;;;;;;;19.93;6.17;;;;;;;;;;5107516;27;20659;-77
2023/01/31 14:29:42;;;;;;;14.80;5.57;;;;;;;;;;5107810;28;20238;-76
2023/01/31 14:32:27;;;;;;;13.17;5.33;;;;;;;;;;5100079;28;20237;-78
2023/01/31 14:34:53;;;;;;;18.40;5.83;;;;;;;;;;5112650;28;20168;-78
2023/01/31 14:37:41;;;;;;;19.43;6.03;;;;;;;;;;5097984;28;20283;-78
2023/01/31 14:40:13;;;;;;;12.60;6.03;;;;;;;;;;5109445;28;20184;-77
2023/01/31 14:42:54;;;;;;;15.17;6.50;;;;;;;;;;5098616;28;20215;-78
2023/01/31 14:45:38;;;;;;;16.43;7.73;;;;;;;;;;5118980;27;20187;-77
2023/01/31 14:48:11;;;;;;;15.87;6.93;;;;;;;;;;5105857;28;20197;-77
2023/01/31 14:50:46;;;;;;;21.60;7.93;;;;;;;;;;5105669;28;20541;-76
2023/01/31 14:53:25;;;;;;;14.77;6.43;;;;;;;;;;5109184;28;20247;-76
2023/01/31 14:56:20;;;;;;;15.83;6.53;;;;;;;;;;5103954;28;20199;-78
2023/01/31 14:58:47;;;;;;;23.70;7.23;;;;;;;;;;5003736;28;20219;-78